Time;durP1;ratioP1;P1;durP2;ratioP2;P2;SDS_P1;SDS_P2;PMS_P1;PMS_P2;Temp;Humidity;BMP_temperature;BMP_pressure;BME280_temperature;BME280_humidity;BME280_pressure;Samples;Min_cycle;Max_cycle;Signal;HPM_P1;HPM_P2
2021/06/19 00:01:35;;;;;;;5.90;2.60;;;22.70;72.00;;;;;;5073625;28;20445;-75
2021/06/19 00:04:01;;;;;;;5.65;2.80;;;22.70;72.00;;;;;;5073931;28;20103;-75
2021/06/19 00:06:26;;;;;;;4.80;2.78;;;22.70;72.00;;;;;;5073475;28;20046;-75
2021/06/19 00:08:52;;;;;;;3.50;3.00;;;22.70;71.90;;;;;;5073990;28;20031;-75
2021/06/19 00:11:18;;;;;;;4.40;2.90;;;22.60;72.00;;;;;;5073975;28;20043;-75
2021/06/19 00:13:44;;;;;;;6.32;2.92;;;22.60;72.10;;;;;;5073869;28;20025;-75
2021/06/19 00:16:10;;;;;;;4.45;2.80;;;22.50;72.10;;;;;;5080178;28;20028;-75
2021/06/19 00:18:36;;;;;;;5.15;2.90;;;22.50;72.30;;;;;;5073685;28;20032;-75
2021/06/19 00:21:02;;;;;;;6.05;3.15;;;22.40;72.50;;;;;;5080471;28;20024;-75
2021/06/19 00:23:29;;;;;;;5.43;2.80;;;22.40;72.70;;;;;;5093850;28;20094;-75
2021/06/19 00:25:55;;;;;;;5.75;2.72;;;22.40;73.00;;;;;;5093923;28;20111;-75
2021/06/19 00:28:21;;;;;;;3.90;3.08;;;22.30;73.10;;;;;;5093927;28;20054;-75
2021/06/19 00:30:47;;;;;;;6.20;2.70;;;22.30;73.30;;;;;;5093185;28;20535;-75
2021/06/19 00:33:12;;;;;;;5.32;3.17;;;22.30;73.50;;;;;;5093438;28;20157;-75
2021/06/19 00:35:38;;;;;;;4.15;2.72;;;22.20;73.50;;;;;;5082457;28;20032;-75
2021/06/19 00:38:04;;;;;;;3.63;2.92;;;22.20;73.80;;;;;;5093741;28;20028;-75
2021/06/19 00:40:30;;;;;;;5.00;2.70;;;22.10;73.80;;;;;;5093465;28;20410;-76
2021/06/19 00:43:01;;;;;;;8.18;3.20;;;22.10;74.10;;;;;;5067618;28;20037;-75
2021/06/19 00:45:31;;;;;;;3.78;2.85;;;22.10;74.10;;;;;;5060309;28;20067;-78
2021/06/19 00:47:57;;;;;;;3.35;2.60;;;22.10;74.20;;;;;;5062241;28;20129;-75
2021/06/19 00:50:24;;;;;;;4.95;3.25;;;22.00;74.20;;;;;;5062368;28;20497;-77
2021/06/19 00:52:50;;;;;;;5.65;2.88;;;22.00;74.30;;;;;;5060777;28;20112;-75
2021/06/19 00:55:17;;;;;;;7.38;2.90;;;22.00;74.30;;;;;;5062187;28;20410;-75
2021/06/19 00:57:44;;;;;;;6.28;3.00;;;22.00;74.30;;;;;;5062693;28;20371;-75
2021/06/19 01:00:11;;;;;;;3.08;2.58;;;22.00;74.30;;;;;;5063168;28;20107;-75
2021/06/19 01:02:37;;;;;;;7.72;2.72;;;22.00;74.30;;;;;;5061509;28;20076;-76
2021/06/19 01:05:09;;;;;;;5.03;2.80;;;21.90;74.20;;;;;;5061148;28;20025;-78
2021/06/19 01:07:35;;;;;;;4.30;3.28;;;21.90;74.30;;;;;;5060085;28;20520;-76
2021/06/19 01:10:01;;;;;;;3.80;2.90;;;21.90;74.30;;;;;;5062065;28;20060;-75
2021/06/19 01:12:27;;;;;;;8.98;2.97;;;21.90;74.30;;;;;;5062197;28;20056;-78
2021/06/19 01:14:54;;;;;;;5.78;3.15;;;21.90;74.40;;;;;;5062374;28;20032;-75
2021/06/19 01:17:22;;;;;;;4.90;3.40;;;21.90;74.50;;;;;;5060671;28;20028;-76
2021/06/19 01:20:05;;;;;;;4.95;2.85;;;21.90;74.60;;;;;;5062176;28;20016;-75
2021/06/19 01:22:32;;;;;;;4.32;2.47;;;21.80;74.60;;;;;;5061475;28;20383;-75
2021/06/19 01:25:02;;;;;;;3.08;2.60;;;21.90;74.70;;;;;;5059707;28;20033;-76
2021/06/19 01:27:29;;;;;;;5.20;2.75;;;21.80;74.90;;;;;;5061404;28;20060;-75
2021/06/19 01:30:00;;;;;;;6.60;3.10;;;21.80;75.00;;;;;;5059858;28;20020;-75
2021/06/19 01:32:27;;;;;;;6.60;3.10;;;21.80;75.00;;;;;;5060790;28;20548;-74
2021/06/19 01:34:54;;;;;;;5.45;2.85;;;21.80;75.10;;;;;;5056103;28;20071;-75
2021/06/19 01:37:20;;;;;;;4.20;2.80;;;21.80;75.10;;;;;;5052834;28;20031;-75
2021/06/19 01:39:45;;;;;;;5.25;2.95;;;21.80;75.10;;;;;;5052961;28;20029;-75
2021/06/19 01:42:11;;;;;;;3.72;2.70;;;21.80;75.20;;;;;;5052439;28;20083;-75
2021/06/19 01:44:37;;;;;;;4.57;2.88;;;21.80;75.30;;;;;;5051648;28;20099;-75
2021/06/19 01:47:03;;;;;;;4.32;2.90;;;21.70;75.40;;;;;;5052789;28;20056;-75
2021/06/19 01:49:36;;;;;;;7.00;3.08;;;21.80;75.60;;;;;;5052660;28;20107;-76
2021/06/19 01:52:04;;;;;;;5.15;3.00;;;21.80;75.70;;;;;;5052700;28;20417;-75
2021/06/19 01:54:38;;;;;;;3.78;3.00;;;21.70;75.70;;;;;;5052525;28;20040;-75
2021/06/19 01:57:05;;;;;;;7.07;3.25;;;21.70;75.70;;;;;;5054676;28;20025;-75
2021/06/19 01:59:32;;;;;;;3.90;2.72;;;21.70;75.80;;;;;;5056131;28;20115;-75
2021/06/19 02:01:59;;;;;;;4.57;2.90;;;21.70;75.70;;;;;;5054786;28;20036;-75
2021/06/19 02:04:26;;;;;;;3.47;2.50;;;21.70;75.80;;;;;;5055022;28;20039;-75
2021/06/19 02:06:52;;;;;;;7.00;3.17;;;21.70;75.90;;;;;;5056283;28;20025;-75
2021/06/19 02:09:18;;;;;;;4.65;4.13;;;21.70;75.90;;;;;;5080421;28;20188;-76
2021/06/19 02:11:44;;;;;;;4.70;2.90;;;21.60;75.90;;;;;;5096450;28;20024;-75
2021/06/19 02:14:12;;;;;;;6.93;3.17;;;21.70;76.10;;;;;;5082872;28;20024;-75
2021/06/19 02:16:39;;;;;;;5.05;3.33;;;21.70;76.70;;;;;;5076061;28;20081;-75
2021/06/19 02:19:05;;;;;;;6.82;3.00;;;21.70;76.10;;;;;;5075985;28;20035;-75
2021/06/19 02:21:31;;;;;;;5.55;3.00;;;21.70;76.10;;;;;;5075315;28;20032;-75
2021/06/19 02:23:57;;;;;;;4.90;3.00;;;21.70;76.20;;;;;;5075901;28;20056;-75
2021/06/19 02:26:23;;;;;;;5.38;3.03;;;21.70;76.20;;;;;;5075859;28;20497;-75
2021/06/19 02:28:48;;;;;;;3.75;3.25;;;21.70;76.30;;;;;;5093880;28;20024;-75
2021/06/19 02:31:15;;;;;;;3.45;3.00;;;21.70;76.30;;;;;;5095711;28;20082;-75
2021/06/19 02:33:43;;;;;;;4.53;3.10;;;21.70;76.40;;;;;;5095930;28;20046;-75
2021/06/19 02:36:09;;;;;;;9.73;3.30;;;21.70;76.30;;;;;;5095900;28;20028;-75
2021/06/19 02:38:35;;;;;;;7.68;3.10;;;21.80;76.30;;;;;;5095562;28;20024;-75
2021/06/19 02:41:00;;;;;;;9.52;3.85;;;21.80;76.20;;;;;;5076541;28;20029;-75
2021/06/19 02:43:26;;;;;;;6.50;3.22;;;21.90;76.10;;;;;;5075616;28;20032;-75
2021/06/19 02:45:52;;;;;;;8.25;3.33;;;21.90;76.10;;;;;;5075390;28;20029;-75
2021/06/19 02:48:18;;;;;;;6.72;3.20;;;21.90;76.00;;;;;;5075479;28;20032;-75
2021/06/19 02:50:45;;;;;;;4.43;2.72;;;21.90;76.10;;;;;;5075161;28;20020;-75
2021/06/19 02:53:12;;;;;;;2.88;2.65;;;21.90;76.00;;;;;;5075578;28;20036;-74
2021/06/19 02:55:40;;;;;;;4.65;3.20;;;21.90;76.00;;;;;;5075501;28;20045;-75
2021/06/19 02:58:07;;;;;;;9.45;3.42;;;21.90;76.00;;;;;;5093963;28;20028;-74
2021/06/19 03:00:33;;;;;;;4.40;2.90;;;22.00;76.00;;;;;;5095656;28;20024;-81
2021/06/19 03:03:00;;;;;;;7.13;3.30;;;22.00;75.90;;;;;;5095041;28;20047;-75
2021/06/19 03:05:26;;;;;;;6.10;3.42;;;22.00;75.80;;;;;;5095597;28;20024;-75
2021/06/19 03:07:53;;;;;;;6.90;3.33;;;22.00;75.60;;;;;;5094835;28;20420;-75
2021/06/19 03:10:21;;;;;;;7.97;2.88;;;22.00;75.40;;;;;;5095361;28;20047;-74
2021/06/19 03:12:47;;;;;;;5.28;2.70;;;22.00;75.10;;;;;;5095196;28;20028;-75
2021/06/19 03:15:14;;;;;;;5.00;2.72;;;22.00;75.00;;;;;;5095212;28;20458;-75
2021/06/19 03:17:40;;;;;;;4.57;3.05;;;22.00;74.90;;;;;;5095017;28;20103;-75
2021/06/19 03:20:07;;;;;;;9.90;2.78;;;22.00;74.80;;;;;;5095356;28;20059;-75
2021/06/19 03:22:56;;;;;;;7.40;3.20;;;22.10;74.60;;;;;;5094766;28;20040;-76
2021/06/19 03:25:28;;;;;;;3.97;2.70;;;22.20;74.40;;;;;;5095006;28;20059;-75
2021/06/19 03:27:58;;;;;;;4.13;2.92;;;22.20;74.10;;;;;;5094738;28;20533;-75
2021/06/19 03:30:25;;;;;;;7.03;3.08;;;22.30;74.00;;;;;;5094898;28;20470;-76
2021/06/19 03:32:51;;;;;;;6.00;3.25;;;22.40;73.90;;;;;;5094727;28;20448;-74
2021/06/19 03:35:18;;;;;;;3.22;2.92;;;22.50;73.50;;;;;;5094688;28;20107;-74
2021/06/19 03:37:47;;;;;;;6.07;3.30;;;22.60;73.30;;;;;;5094928;28;20108;-74
2021/06/19 03:40:14;;;;;;;11.48;3.60;;;22.70;73.10;;;;;;5094938;28;20056;-74
2021/06/19 03:42:40;;;;;;;3.65;2.90;;;22.80;72.90;;;;;;5094732;28;20040;-76
2021/06/19 03:45:08;;;;;;;6.00;3.13;;;22.90;72.70;;;;;;5095602;28;20408;-74
2021/06/19 03:47:34;;;;;;;6.68;2.92;;;23.00;72.30;;;;;;5110606;28;20028;-75
2021/06/19 03:50:00;;;;;;;4.07;2.80;;;23.20;72.20;;;;;;5094030;28;20462;-76
2021/06/19 03:52:25;;;;;;;5.95;2.97;;;23.30;71.90;;;;;;5094542;28;20074;-75
2021/06/19 03:54:52;;;;;;;5.95;2.85;;;23.40;71.60;;;;;;5084186;28;20033;-74
2021/06/19 03:57:31;;;;;;;7.07;3.30;;;23.50;71.30;;;;;;5074314;28;20035;-74
2021/06/19 03:59:58;;;;;;;4.85;2.47;;;23.70;70.80;;;;;;5074096;28;20028;-74
2021/06/19 04:02:24;;;;;;;6.93;3.13;;;23.80;70.40;;;;;;5073866;28;20033;-74
2021/06/19 04:04:50;;;;;;;4.22;2.92;;;23.90;69.90;;;;;;5078108;28;20128;-74
2021/06/19 04:07:18;;;;;;;5.97;3.25;;;24.00;69.60;;;;;;5094288;28;20407;-74
2021/06/19 04:09:45;;;;;;;5.57;2.80;;;24.20;69.30;;;;;;5094074;28;20077;-74
2021/06/19 04:12:12;;;;;;;8.27;3.28;;;24.30;68.90;;;;;;5094188;28;20184;-75
2021/06/19 04:14:37;;;;;;;8.50;3.40;;;24.40;68.70;;;;;;5082121;28;20430;-81
2021/06/19 04:17:04;;;;;;;6.82;3.65;;;24.40;68.60;;;;;;5073921;28;20111;-75
2021/06/19 04:19:30;;;;;;;5.85;3.30;;;24.50;68.50;;;;;;5108841;28;20489;-75
2021/06/19 04:21:55;;;;;;;5.50;3.25;;;24.50;68.30;;;;;;5093864;28;20028;-75
2021/06/19 04:24:21;;;;;;;6.85;3.28;;;24.60;68.10;;;;;;5094246;28;20032;-75
2021/06/19 04:26:47;;;;;;;5.72;2.80;;;24.60;68.00;;;;;;5093885;28;20032;-75
2021/06/19 04:29:13;;;;;;;5.30;3.00;;;24.60;67.90;;;;;;5094158;28;20515;-74
2021/06/19 04:31:38;;;;;;;6.10;3.20;;;24.60;67.60;;;;;;5094155;28;20039;-76
2021/06/19 04:34:04;;;;;;;8.68;3.10;;;24.60;67.50;;;;;;5093324;28;20027;-75
2021/06/19 04:36:30;;;;;;;7.90;4.03;;;24.60;67.40;;;;;;5093558;28;20024;-75
2021/06/19 04:38:55;;;;;;;8.88;3.42;;;24.60;67.50;;;;;;5093765;28;20020;-75
2021/06/19 04:42:08;;;;;;;9.10;3.38;;;24.60;67.50;;;;;;5093490;28;20028;-75
2021/06/19 04:46:53;;;;;;;6.35;3.40;;;24.40;67.80;;;;;;5062399;28;20466;-76
2021/06/19 04:49:19;;;;;;;7.28;3.47;;;24.30;67.90;;;;;;5092714;28;20024;-75
2021/06/19 04:51:45;;;;;;;7.15;4.00;;;24.30;68.10;;;;;;5094016;28;20488;-76
2021/06/19 04:54:12;;;;;;;6.03;3.40;;;24.20;68.40;;;;;;5079608;28;20044;-76
2021/06/19 04:56:39;;;;;;;5.93;3.83;;;24.20;68.70;;;;;;5073381;28;20063;-75
2021/06/19 04:59:04;;;;;;;4.97;3.38;;;24.20;68.90;;;;;;5073268;28;20025;-75
2021/06/19 05:01:30;;;;;;;4.07;3.45;;;24.20;69.00;;;;;;5056294;28;20082;-76
2021/06/19 05:03:57;;;;;;;3.70;3.35;;;24.20;69.10;;;;;;5060909;28;20371;-75
2021/06/19 05:06:23;;;;;;;11.23;3.55;;;24.20;69.10;;;;;;5062689;28;20083;-75
2021/06/19 05:08:49;;;;;;;8.60;3.83;;;24.20;69.10;;;;;;5061800;28;20044;-75
2021/06/19 05:11:15;;;;;;;9.25;3.80;;;24.10;69.20;;;;;;5063727;28;20030;-77
2021/06/19 05:13:40;;;;;;;5.88;3.60;;;24.20;69.30;;;;;;5062335;28;20017;-75
2021/06/19 05:16:06;;;;;;;9.55;3.97;;;24.20;69.40;;;;;;5062523;28;20025;-75
2021/06/19 05:18:32;;;;;;;7.88;3.83;;;24.20;69.50;;;;;;5063805;28;20051;-76
2021/06/19 05:20:57;;;;;;;5.40;3.67;;;24.30;69.60;;;;;;5052866;28;20025;-75
2021/06/19 05:23:23;;;;;;;6.80;3.80;;;24.30;69.50;;;;;;5051887;28;20040;-75
2021/06/19 05:25:49;;;;;;;7.00;4.50;;;24.40;69.50;;;;;;5052703;28;20614;-75
2021/06/19 05:28:16;;;;;;;10.50;3.92;;;24.40;69.50;;;;;;5052842;28;20154;-76
2021/06/19 05:30:42;;;;;;;5.82;4.00;;;24.40;69.50;;;;;;5054464;28;20494;-79
2021/06/19 05:33:08;;;;;;;4.93;3.72;;;24.40;69.40;;;;;;5057106;28;20115;-75
2021/06/19 05:35:34;;;;;;;7.45;4.20;;;24.40;69.30;;;;;;5055658;28;20092;-75
2021/06/19 05:37:59;;;;;;;9.02;4.20;;;24.40;69.30;;;;;;5056563;28;20091;-75
2021/06/19 05:40:25;;;;;;;6.35;4.10;;;24.40;69.30;;;;;;5056896;28;20427;-75
2021/06/19 05:42:54;;;;;;;6.95;3.90;;;24.50;69.40;;;;;;5056692;28;20361;-76
2021/06/19 05:45:20;;;;;;;5.72;4.10;;;24.50;69.30;;;;;;5057180;28;20021;-76
2021/06/19 05:47:46;;;;;;;7.45;4.20;;;24.50;69.40;;;;;;5057421;28;20029;-76
2021/06/19 05:50:11;;;;;;;7.00;4.28;;;24.60;69.50;;;;;;5058246;28;20467;-75
2021/06/19 05:52:37;;;;;;;11.98;4.35;;;24.60;69.50;;;;;;5060142;28;20045;-75
2021/06/19 05:55:05;;;;;;;6.78;4.05;;;24.70;70.00;;;;;;5059911;28;20040;-74
2021/06/19 05:57:30;;;;;;;6.68;4.20;;;24.70;69.30;;;;;;5056902;28;20158;-74
2021/06/19 05:59:56;;;;;;;6.55;4.38;;;24.80;69.20;;;;;;5062911;28;20041;-75
2021/06/19 06:02:22;;;;;;;13.38;4.60;;;24.80;69.10;;;;;;5062582;28;20040;-74
2021/06/19 06:04:48;;;;;;;6.55;3.90;;;24.80;69.00;;;;;;5064685;28;20104;-74
2021/06/19 06:07:14;;;;;;;20.58;5.05;;;24.80;68.90;;;;;;5065483;28;20471;-75
2021/06/19 06:09:39;;;;;;;6.72;4.18;;;24.80;68.90;;;;;;5067254;28;20021;-74
2021/06/19 06:12:07;;;;;;;19.35;4.60;;;24.90;68.90;;;;;;5066598;28;20097;-75
2021/06/19 06:14:33;;;;;;;7.60;4.75;;;24.90;68.90;;;;;;5067885;28;20455;-75
2021/06/19 06:16:58;;;;;;;10.75;5.35;;;24.90;69.00;;;;;;5057208;28;20155;-76
2021/06/19 06:19:24;;;;;;;6.20;4.50;;;24.90;68.80;;;;;;5061052;28;20052;-74
2021/06/19 06:21:50;;;;;;;7.18;4.00;;;25.00;68.70;;;;;;5066722;28;20370;-75
2021/06/19 06:24:16;;;;;;;6.70;4.22;;;25.00;68.80;;;;;;5068271;28;20108;-75
2021/06/19 06:26:43;;;;;;;7.22;4.30;;;25.10;68.90;;;;;;5065698;28;20032;-75
2021/06/19 06:29:08;;;;;;;8.35;4.30;;;25.20;68.90;;;;;;5063861;28;20040;-75
2021/06/19 06:31:35;;;;;;;6.03;4.40;;;25.20;68.70;;;;;;5060320;28;20094;-76
2021/06/19 06:34:00;;;;;;;7.35;4.80;;;25.30;68.60;;;;;;5055561;28;20443;-75
2021/06/19 06:36:26;;;;;;;10.30;4.50;;;25.40;68.40;;;;;;5055666;28;20167;-75
2021/06/19 06:38:52;;;;;;;7.78;4.72;;;25.40;68.30;;;;;;5055692;28;20100;-75
2021/06/19 06:41:17;;;;;;;8.98;4.82;;;25.40;68.30;;;;;;5056130;28;20037;-76
2021/06/19 06:43:43;;;;;;;9.75;5.30;;;25.50;68.30;;;;;;5063998;28;20458;-75
2021/06/19 06:46:09;;;;;;;11.98;4.45;;;25.50;68.10;;;;;;5069863;28;20051;-76
2021/06/19 06:48:35;;;;;;;18.35;4.60;;;25.60;68.10;;;;;;5063565;28;20021;-75
2021/06/19 06:51:00;;;;;;;7.72;4.60;;;25.70;68.10;;;;;;5064575;28;20020;-76
2021/06/19 06:53:26;;;;;;;7.03;4.50;;;25.80;67.90;;;;;;5064069;28;20040;-76
2021/06/19 06:55:52;;;;;;;8.43;4.57;;;25.90;67.50;;;;;;5068147;28;20033;-76
2021/06/19 06:58:17;;;;;;;7.82;4.90;;;26.00;67.20;;;;;;5065170;28;20039;-75
2021/06/19 07:00:43;;;;;;;5.97;4.50;;;26.00;66.90;;;;;;5064102;28;20017;-75
2021/06/19 07:03:09;;;;;;;8.90;4.75;;;26.00;66.90;;;;;;5062684;28;20510;-74
2021/06/19 07:05:34;;;;;;;10.05;4.93;;;26.10;67.00;;;;;;5055133;28;20025;-74
2021/06/19 07:08:00;;;;;;;11.15;4.90;;;26.10;66.70;;;;;;5054875;28;20021;-74
2021/06/19 07:10:26;;;;;;;5.57;4.00;;;26.20;66.70;;;;;;5055374;28;20048;-75
2021/06/19 07:12:52;;;;;;;14.10;4.70;;;26.20;66.70;;;;;;5052192;28;20033;-75
2021/06/19 07:15:18;;;;;;;11.82;4.70;;;26.30;66.60;;;;;;5054911;28;20147;-75
2021/06/19 07:17:44;;;;;;;8.88;4.28;;;26.30;66.30;;;;;;5054922;28;20025;-74
2021/06/19 07:20:12;;;;;;;6.90;4.28;;;26.40;66.00;;;;;;5040816;28;20132;-79
2021/06/19 07:22:38;;;;;;;18.02;4.93;;;26.40;66.10;;;;;;5053827;28;20090;-75
2021/06/19 07:25:06;;;;;;;6.93;4.25;;;26.60;65.80;;;;;;5054401;28;20100;-75
2021/06/19 07:27:32;;;;;;;5.68;4.38;;;26.70;65.20;;;;;;5054563;28;20074;-75
2021/06/19 07:29:58;;;;;;;8.15;4.35;;;27.00;65.10;;;;;;5054729;28;20370;-75
2021/06/19 07:32:24;;;;;;;11.30;3.97;;;27.20;64.40;;;;;;5054133;28;20040;-76
2021/06/19 07:34:50;;;;;;;6.90;3.92;;;27.40;63.90;;;;;;5054359;28;20379;-76
2021/06/19 07:37:16;;;;;;;8.30;3.70;;;27.60;63.50;;;;;;5054226;28;20048;-74
2021/06/19 07:39:41;;;;;;;7.82;3.80;;;27.70;62.80;;;;;;5053162;28;20116;-75
2021/06/19 07:42:07;;;;;;;13.85;4.07;;;27.70;62.50;;;;;;5054119;28;20037;-77
2021/06/19 07:44:33;;;;;;;10.27;3.90;;;27.70;62.50;;;;;;5053895;28;20075;-76
2021/06/19 07:46:59;;;;;;;8.48;4.28;;;27.70;62.30;;;;;;5054149;28;20064;-76
2021/06/19 07:49:28;;;;;;;5.75;4.18;;;27.80;62.30;;;;;;5054128;28;20025;-76
2021/06/19 07:51:54;;;;;;;7.43;4.05;;;27.90;62.30;;;;;;5053424;28;20523;-76
2021/06/19 07:54:20;;;;;;;12.93;4.60;;;28.10;62.20;;;;;;5053673;28;20060;-75
2021/06/19 07:56:47;;;;;;;6.35;4.10;;;28.20;61.80;;;;;;5053946;28;20063;-75
2021/06/19 07:59:14;;;;;;;8.57;3.97;;;28.30;61.60;;;;;;5052346;28;20025;-75
2021/06/19 08:01:39;;;;;;;9.63;4.07;;;28.30;61.50;;;;;;5054102;28;20032;-75
2021/06/19 08:04:05;;;;;;;7.00;4.20;;;28.30;61.50;;;;;;5054053;28;20374;-76
2021/06/19 08:06:31;;;;;;;6.47;3.85;;;28.30;61.60;;;;;;5053118;28;20100;-76
2021/06/19 08:08:56;;;;;;;8.50;4.05;;;28.30;61.80;;;;;;5052779;28;20036;-76
2021/06/19 08:11:23;;;;;;;5.55;4.15;;;28.30;61.70;;;;;;5052352;28;20035;-75
2021/06/19 08:13:49;;;;;;;7.15;3.97;;;28.30;62.00;;;;;;5052921;28;20025;-75
2021/06/19 08:16:18;;;;;;;8.27;4.18;;;28.30;62.00;;;;;;5053707;28;20025;-74
2021/06/19 08:18:45;;;;;;;11.35;4.40;;;28.30;61.90;;;;;;5052184;28;20032;-76
2021/06/19 08:21:11;;;;;;;6.65;4.20;;;28.40;61.80;;;;;;5052888;28;20413;-75
2021/06/19 08:23:37;;;;;;;5.88;4.15;;;28.60;61.60;;;;;;5053026;28;20064;-76
2021/06/19 08:26:03;;;;;;;6.93;3.97;;;28.60;61.60;;;;;;5053232;28;20055;-75
2021/06/19 08:28:30;;;;;;;11.60;5.15;;;28.70;61.40;;;;;;5052893;28;20033;-75
2021/06/19 08:30:56;;;;;;;11.77;4.50;;;28.80;61.50;;;;;;5080267;28;20070;-76
2021/06/19 08:33:22;;;;;;;5.30;3.97;;;29.00;61.70;;;;;;5083777;28;20110;-76
2021/06/19 08:35:47;;;;;;;8.50;4.05;;;29.40;61.20;;;;;;5093617;28;20137;-76
2021/06/19 08:38:13;;;;;;;7.32;4.60;;;29.60;60.40;;;;;;5093347;28;20027;-76
2021/06/19 08:40:39;;;;;;;9.68;4.70;;;29.90;60.00;;;;;;5093468;28;20024;-77
2021/06/19 08:43:05;;;;;;;7.55;4.65;;;30.20;59.50;;;;;;5109177;28;20470;-76
2021/06/19 08:45:33;;;;;;;8.20;4.55;;;30.60;58.90;;;;;;5093730;28;20031;-76
2021/06/19 08:48:03;;;;;;;9.82;4.80;;;30.90;58.50;;;;;;5109372;28;20063;-77
2021/06/19 08:50:30;;;;;;;10.88;4.78;;;31.30;57.10;;;;;;5093507;28;20034;-76
2021/06/19 08:53:00;;;;;;;12.93;5.10;;;31.50;56.30;;;;;;5080563;28;20039;-76
2021/06/19 08:55:27;;;;;;;9.60;4.35;;;31.80;56.10;;;;;;5098205;28;20075;-77
2021/06/19 08:57:53;;;;;;;13.63;4.82;;;32.00;55.50;;;;;;5073522;28;20123;-76
2021/06/19 09:00:19;;;;;;;8.73;4.60;;;32.00;55.40;;;;;;5073514;28;20104;-77
2021/06/19 09:02:48;;;;;;;5.05;4.55;;;32.10;55.20;;;;;;5072992;28;20037;-75
2021/06/19 09:05:24;;;;;;;9.75;4.90;;;32.30;55.10;;;;;;5074369;28;20471;-75
2021/06/19 09:07:53;;;;;;;4.90;4.38;;;32.70;54.70;;;;;;5077791;28;20454;-76
2021/06/19 09:10:35;;;;;;;17.00;5.32;;;33.00;54.00;;;;;;5077440;28;20029;-76
2021/06/19 09:13:10;;;;;;;5.15;4.55;;;33.40;53.70;;;;;;5077250;28;20458;-76
2021/06/19 09:15:44;;;;;;;10.93;5.10;;;33.70;53.10;;;;;;5076940;28;20528;-76
2021/06/19 09:18:19;;;;;;;7.45;4.75;;;33.90;52.70;;;;;;5075806;28;20035;-76
2021/06/19 09:20:58;;;;;;;13.02;5.07;;;34.10;52.50;;;;;;5077153;28;20355;-76
2021/06/19 09:23:36;;;;;;;8.20;5.07;;;34.50;52.10;;;;;;5076724;28;20032;-76
2021/06/19 09:26:15;;;;;;;10.23;4.90;;;34.70;51.50;;;;;;5075776;28;20032;-76
2021/06/19 09:29:01;;;;;;;12.52;5.30;;;35.10;51.00;;;;;;5076949;28;20470;-75
2021/06/19 09:31:46;;;;;;;9.77;5.10;;;35.20;50.40;;;;;;5076737;28;20025;-75
2021/06/19 09:34:20;;;;;;;11.95;5.45;;;35.30;50.20;;;;;;5076363;28;20470;-75
2021/06/19 09:36:58;;;;;;;23.20;8.90;;;35.60;50.60;;;;;;5076487;28;20028;-75
2021/06/19 09:39:29;;;;;;;15.73;6.70;;;35.80;50.10;;;;;;5076718;28;20020;-76
2021/06/19 09:41:57;;;;;;;19.77;7.57;;;36.30;49.60;;;;;;5075084;28;20382;-78
2021/06/19 09:44:45;;;;;;;9.85;5.15;;;36.30;49.10;;;;;;5056557;28;20087;-76
2021/06/19 09:47:13;;;;;;;22.48;7.32;;;36.10;49.20;;;;;;5056587;28;20029;-76
2021/06/19 09:49:41;;;;;;;16.98;5.90;;;36.00;49.40;;;;;;5055253;28;20025;-76
2021/06/19 09:52:09;;;;;;;6.88;4.22;;;36.20;49.80;;;;;;5056218;28;20032;-75
2021/06/19 09:54:43;;;;;;;8.30;4.00;;;36.10;49.20;;;;;;5056373;28;20045;-75
2021/06/19 09:57:17;;;;;;;10.02;3.97;;;35.60;49.30;;;;;;5056187;28;20029;-76
2021/06/19 09:59:43;;;;;;;17.20;4.38;;;34.90;49.80;;;;;;5056344;28;20075;-74
2021/06/19 10:02:28;;;;;;;9.38;4.55;;;34.20;50.60;;;;;;5067449;28;20122;-75
2021/06/19 10:04:57;;;;;;;8.63;3.92;;;33.40;51.70;;;;;;5075825;28;20033;-76
2021/06/19 10:07:27;;;;;;;6.63;3.65;;;32.80;52.90;;;;;;5070530;28;20036;-75
2021/06/19 10:09:55;;;;;;;8.48;3.15;;;32.20;52.50;;;;;;5069064;28;20032;-78
2021/06/19 10:12:23;;;;;;;5.38;3.20;;;31.70;52.80;;;;;;5072922;28;20111;-77
2021/06/19 10:14:53;;;;;;;11.95;3.80;;;31.50;52.90;;;;;;5076189;28;20032;-75
2021/06/19 10:17:22;;;;;;;9.25;3.30;;;31.50;52.90;;;;;;5070397;28;20488;-74
2021/06/19 10:19:49;;;;;;;17.08;3.53;;;31.70;52.90;;;;;;5064720;28;20043;-76
2021/06/19 10:22:14;;;;;;;7.60;3.00;;;32.20;52.80;;;;;;5075482;28;20028;-75
2021/06/19 10:24:43;;;;;;;8.45;2.97;;;32.80;52.60;;;;;;5075861;28;20066;-75
2021/06/19 10:27:14;;;;;;;3.83;2.40;;;33.70;51.50;;;;;;5075240;28;20028;-78
2021/06/19 10:29:41;;;;;;;3.55;2.58;;;33.80;50.20;;;;;;5075574;28;20028;-76
2021/06/19 10:32:07;;;;;;;9.98;3.08;;;33.60;49.70;;;;;;5075442;28;20024;-76
2021/06/19 10:34:34;;;;;;;9.75;3.05;;;33.30;49.90;;;;;;5075384;28;20035;-76
2021/06/19 10:37:07;;;;;;;10.23;2.90;;;33.00;50.20;;;;;;5075162;28;20040;-74
2021/06/19 10:39:41;;;;;;;5.82;2.83;;;32.80;50.90;;;;;;5075913;28;20413;-75
2021/06/19 10:42:22;;;;;;;7.25;2.70;;;32.70;51.40;;;;;;5075013;28;20044;-76
2021/06/19 10:44:57;;;;;;;7.13;2.78;;;33.00;51.40;;;;;;5075560;28;20040;-75
2021/06/19 10:47:25;;;;;;;6.03;2.80;;;33.50;50.90;;;;;;5075243;28;20025;-76
2021/06/19 10:49:52;;;;;;;6.50;2.65;;;34.20;50.30;;;;;;5074873;28;20492;-75
2021/06/19 10:52:30;;;;;;;5.00;2.60;;;34.90;49.30;;;;;;5073897;28;20035;-76
2021/06/19 10:55:08;;;;;;;11.20;2.70;;;35.30;48.00;;;;;;5075169;28;20463;-75
2021/06/19 10:57:45;;;;;;;4.00;2.50;;;35.30;47.10;;;;;;5076631;28;20082;-74
2021/06/19 11:00:43;;;;;;;8.10;2.80;;;35.20;47.00;;;;;;5075629;28;20029;-76
2021/06/19 11:03:09;;;;;;;10.40;2.83;;;35.60;47.50;;;;;;5084743;28;20036;-77
2021/06/19 11:05:43;;;;;;;4.20;2.60;;;36.20;47.00;;;;;;5075112;28;20047;-75
2021/06/19 11:08:14;;;;;;;5.32;2.55;;;36.30;46.50;;;;;;5082612;28;20041;-76
2021/06/19 11:10:46;;;;;;;7.03;2.67;;;36.50;46.00;;;;;;5095429;28;20020;-76
2021/06/19 11:13:30;;;;;;;6.80;2.58;;;36.70;45.70;;;;;;5093336;28;20363;-76
2021/06/19 11:16:04;;;;;;;8.38;2.80;;;37.60;44.90;;;;;;5095065;28;20024;-75
2021/06/19 11:18:49;;;;;;;4.85;2.70;;;38.50;44.70;;;;;;5095021;28;20373;-76
2021/06/19 11:21:20;;;;;;;6.43;2.60;;;38.60;43.70;;;;;;5092949;28;20030;-75
2021/06/19 11:24:06;;;;;;;6.85;2.47;;;38.90;43.60;;;;;;5110453;28;20063;-75
2021/06/19 11:26:56;;;;;;;4.53;2.50;;;40.10;43.10;;;;;;5094756;28;20363;-75
2021/06/19 11:29:34;;;;;;;6.90;2.72;;;41.30;42.10;;;;;;5075450;28;20028;-75
2021/06/19 11:32:24;;;;;;;6.47;2.25;;;42.20;40.90;;;;;;5074387;28;20024;-76
2021/06/19 11:35:01;;;;;;;5.65;2.25;;;42.90;40.20;;;;;;5068979;28;20139;-77
2021/06/19 11:37:56;;;;;;;9.30;2.70;;;43.60;39.70;;;;;;5074008;28;20028;-76
2021/06/19 11:40:28;;;;;;;10.93;2.50;;;44.50;38.80;;;;;;5072760;28;20028;-77
2021/06/19 11:42:54;;;;;;;7.43;2.33;;;45.00;38.20;;;;;;5074441;28;20032;-76
2021/06/19 11:45:19;;;;;;;10.35;2.90;;;45.40;37.80;;;;;;5074136;28;20039;-76
2021/06/19 11:47:47;;;;;;;8.98;3.05;;;45.50;37.50;;;;;;5073706;28;20070;-77
2021/06/19 11:50:14;;;;;;;6.18;2.55;;;45.70;37.20;;;;;;5073030;28;20190;-76
2021/06/19 11:52:39;;;;;;;9.15;2.78;;;46.10;37.00;;;;;;5072824;28;20060;-75
2021/06/19 11:55:05;;;;;;;10.32;2.30;;;46.30;36.70;;;;;;5074291;28;20466;-76
2021/06/19 11:57:31;;;;;;;6.40;2.60;;;45.90;36.40;;;;;;5073529;28;20101;-77
2021/06/19 12:00:12;;;;;;;6.65;2.17;;;45.20;36.10;;;;;;5073758;28;20462;-76
2021/06/19 12:02:39;;;;;;;7.07;2.70;;;44.30;36.30;;;;;;5073363;28;20040;-74
2021/06/19 12:05:18;;;;;;;7.93;2.53;;;43.30;37.10;;;;;;5073895;28;20035;-76
2021/06/19 12:07:52;;;;;;;5.75;2.30;;;41.80;38.80;;;;;;5072561;28;20153;-76
2021/06/19 12:10:37;;;;;;;4.82;2.20;;;40.50;39.60;;;;;;5073620;28;20173;-76
2021/06/19 12:13:05;;;;;;;4.38;2.13;;;39.10;41.00;;;;;;5073221;28;20406;-75
2021/06/19 12:15:32;;;;;;;11.60;2.67;;;38.00;42.00;;;;;;5073598;28;20478;-76
2021/06/19 12:18:00;;;;;;;13.25;3.60;;;36.90;43.20;;;;;;5073750;28;20386;-76
2021/06/19 12:20:26;;;;;;;6.70;2.90;;;36.00;44.70;;;;;;5073821;28;20108;-76
2021/06/19 12:22:52;;;;;;;5.90;2.80;;;35.20;46.50;;;;;;5073623;28;20120;-76
2021/06/19 12:25:47;;;;;;;5.38;2.42;;;34.50;46.70;;;;;;5073891;28;20462;-76
2021/06/19 12:28:23;;;;;;;3.88;2.47;;;33.60;47.10;;;;;;5064828;28;20125;-74
2021/06/19 12:30:59;;;;;;;10.30;2.45;;;32.90;48.50;;;;;;5073178;28;20031;-74
2021/06/19 12:33:30;;;;;;;8.82;2.42;;;32.50;49.50;;;;;;5072983;28;20028;-74
2021/06/19 12:35:57;;;;;;;5.93;2.45;;;32.40;50.20;;;;;;5073166;28;20032;-74
2021/06/19 12:38:24;;;;;;;23.08;16.83;;;32.30;50.30;;;;;;5073543;28;20021;-73
2021/06/19 12:40:50;;;;;;;11.75;6.78;;;32.20;50.40;;;;;;5064449;28;20028;-75
2021/06/19 12:43:16;;;;;;;13.50;6.20;;;32.00;50.70;;;;;;5053228;28;20435;-74
2021/06/19 12:46:14;;;;;;;8.90;5.85;;;31.90;51.00;;;;;;5065048;28;20163;-76
2021/06/19 12:48:39;;;;;;;8.73;3.88;;;31.80;51.20;;;;;;5064281;28;20096;-75
2021/06/19 12:51:19;;;;;;;5.20;3.20;;;31.80;51.00;;;;;;5061963;28;20120;-75
2021/06/19 12:53:45;;;;;;;4.80;2.70;;;31.80;50.60;;;;;;5061941;28;20029;-75
2021/06/19 12:56:11;;;;;;;7.68;2.95;;;32.00;50.10;;;;;;5062264;28;20147;-75